createdAt,value
2022-07-29T00:00:15.206Z,14.82
2022-07-29T00:02:42.357Z,14.85
2022-07-29T00:05:10.179Z,14.87
2022-07-29T00:07:37.132Z,14.89
2022-07-29T00:10:05.547Z,14.87
2022-07-29T00:12:32.443Z,14.91
2022-07-29T00:14:59.345Z,14.91
2022-07-29T00:17:26.788Z,14.91
2022-07-29T00:19:54.305Z,14.91
2022-07-29T00:22:21.763Z,14.91
2022-07-29T00:24:50.354Z,14.90
2022-07-29T00:27:18.256Z,14.91
2022-07-29T00:29:45.160Z,14.90
2022-07-29T00:32:12.146Z,14.88
2022-07-29T00:34:57.735Z,14.85
2022-07-29T00:37:24.782Z,14.79
2022-07-29T00:39:51.684Z,14.76
2022-07-29T00:42:18.721Z,14.71
2022-07-29T00:44:45.662Z,14.65
2022-07-29T00:47:13.605Z,14.60
2022-07-29T00:49:42.026Z,14.55
2022-07-29T00:52:10.709Z,14.51
2022-07-29T00:54:44.343Z,14.43
2022-07-29T00:57:12.943Z,14.43
2022-07-29T00:59:39.986Z,14.39
2022-07-29T01:02:07.116Z,14.33
2022-07-29T01:04:34.491Z,14.34
2022-07-29T01:07:03.324Z,14.28
2022-07-29T01:09:35.974Z,14.18
2022-07-29T01:12:19.826Z,14.18
2022-07-29T01:14:48.916Z,14.12
2022-07-29T01:17:39.548Z,14.07
2022-07-29T01:20:31.701Z,14.08
2022-07-29T01:23:07.845Z,14.11
2022-07-29T01:26:13.387Z,14.06
2022-07-29T01:29:06.107Z,14.04
2022-07-29T01:32:09.684Z,13.94
2022-07-29T01:34:57.432Z,13.81
2022-07-29T01:37:34.144Z,13.70
2022-07-29T01:40:04.777Z,13.54
2022-07-29T01:42:45.858Z,13.51
2022-07-29T01:45:22.780Z,13.44
2022-07-29T01:48:03.306Z,13.40
2022-07-29T01:50:41.465Z,13.27
2022-07-29T01:53:13.770Z,13.22
2022-07-29T01:55:45.581Z,13.25
2022-07-29T01:58:15.765Z,13.21
2022-07-29T02:00:46.486Z,13.19
2022-07-29T02:03:14.984Z,13.15
2022-07-29T02:05:46.773Z,13.11
2022-07-29T02:08:14.704Z,13.11
2022-07-29T02:10:44.050Z,13.08
2022-07-29T02:13:13.499Z,13.06
2022-07-29T02:15:43.001Z,13.03
2022-07-29T02:18:15.528Z,12.94
2022-07-29T02:20:48.186Z,12.95
2022-07-29T02:23:20.590Z,12.92
2022-07-29T02:25:50.458Z,12.93
2022-07-29T02:28:20.206Z,12.97
2022-07-29T02:30:49.071Z,12.96
2022-07-29T02:33:18.190Z,12.97
2022-07-29T02:35:47.289Z,13.01
2022-07-29T02:38:35.639Z,13.04
2022-07-29T02:41:12.678Z,13.06
2022-07-29T02:43:41.821Z,12.99
2022-07-29T02:46:28.995Z,13.02
2022-07-29T02:49:04.044Z,13.00
2022-07-29T02:51:44.624Z,13.03
2022-07-29T02:54:33.395Z,13.03
2022-07-29T02:57:05.043Z,13.00
2022-07-29T02:59:35.724Z,12.94
2022-07-29T03:02:06.251Z,12.95
2022-07-29T03:04:35.599Z,12.92
2022-07-29T03:07:03.686Z,12.86
2022-07-29T03:09:31.489Z,12.82
2022-07-29T03:11:58.798Z,12.78
2022-07-29T03:14:26.816Z,12.77
2022-07-29T03:16:54.628Z,12.76
2022-07-29T03:19:22.041Z,12.75
2022-07-29T03:21:49.442Z,12.75
2022-07-29T03:24:38.000Z,12.76
2022-07-29T03:27:06.535Z,12.70
2022-07-29T03:29:34.709Z,12.60
2022-07-29T03:32:07.253Z,12.55
2022-07-29T03:34:35.149Z,12.56
2022-07-29T03:37:02.089Z,12.58
2022-07-29T03:39:32.629Z,12.58
2022-07-29T03:42:02.279Z,12.57
2022-07-29T03:44:30.455Z,12.55
2022-07-29T03:47:01.153Z,12.61
2022-07-29T03:49:29.042Z,12.65
2022-07-29T03:51:56.214Z,12.68
2022-07-29T03:54:24.171Z,12.69
2022-07-29T03:56:53.776Z,12.74
2022-07-29T03:59:22.013Z,12.78
2022-07-29T04:01:50.177Z,12.79
2022-07-29T04:04:18.005Z,12.80
2022-07-29T04:06:48.310Z,12.78
2022-07-29T04:09:15.473Z,12.79
2022-07-29T04:11:59.147Z,12.81
2022-07-29T04:14:30.150Z,12.83
2022-07-29T04:16:56.999Z,12.85
2022-07-29T04:19:23.883Z,12.88
2022-07-29T04:21:50.830Z,12.91
2022-07-29T04:24:18.563Z,12.93
2022-07-29T04:26:47.651Z,12.92
2022-07-29T04:29:15.535Z,12.89
2022-07-29T04:31:43.307Z,12.96
2022-07-29T04:34:11.241Z,12.97
2022-07-29T04:36:38.128Z,12.97
2022-07-29T04:39:05.735Z,12.97
2022-07-29T04:41:33.730Z,12.97
2022-07-29T04:44:07.194Z,12.98
2022-07-29T04:46:35.481Z,12.95
2022-07-29T04:49:04.186Z,12.95
2022-07-29T04:51:31.431Z,12.91
2022-07-29T04:53:58.366Z,12.90
2022-07-29T04:56:25.409Z,12.90
2022-07-29T04:58:52.674Z,12.90
2022-07-29T05:01:20.382Z,12.90
2022-07-29T05:03:47.280Z,12.94
2022-07-29T05:06:14.200Z,12.97
2022-07-29T05:08:41.997Z,13.02
2022-07-29T05:11:11.461Z,13.05
2022-07-29T05:13:45.526Z,13.06
2022-07-29T05:16:14.684Z,13.14
2022-07-29T05:18:42.111Z,13.13
2022-07-29T05:21:08.990Z,13.22
2022-07-29T05:23:36.043Z,13.24
2022-07-29T05:26:03.098Z,13.28
2022-07-29T05:28:30.031Z,13.32
2022-07-29T05:30:57.476Z,13.39
2022-07-29T05:33:36.023Z,13.51
2022-07-29T05:36:08.052Z,13.62
2022-07-29T05:38:36.760Z,13.80
2022-07-29T05:41:04.837Z,14.01
2022-07-29T05:43:31.791Z,14.17
2022-07-29T05:45:59.176Z,14.35
2022-07-29T05:48:26.566Z,14.57
2022-07-29T05:50:53.531Z,14.81
2022-07-29T05:53:21.042Z,15.36
2022-07-29T05:55:53.345Z,15.86
2022-07-29T05:58:20.824Z,16.58
2022-07-29T06:00:48.029Z,17.38
2022-07-29T06:03:14.962Z,18.20
2022-07-29T06:05:42.057Z,18.74
2022-07-29T06:08:08.935Z,19.23
2022-07-29T06:10:36.567Z,19.22
2022-07-29T06:13:03.743Z,18.98
2022-07-29T06:15:30.605Z,18.72
2022-07-29T06:18:00.324Z,18.40
2022-07-29T06:20:32.834Z,18.14
2022-07-29T06:23:00.589Z,17.94
2022-07-29T06:25:30.558Z,17.84
2022-07-29T06:27:58.506Z,17.81
2022-07-29T06:30:25.502Z,17.83
2022-07-29T06:32:52.382Z,17.85
2022-07-29T06:35:38.536Z,17.92
2022-07-29T06:38:30.794Z,18.04
2022-07-29T06:41:11.229Z,18.19
2022-07-29T06:43:50.842Z,18.35
2022-07-29T06:46:20.701Z,18.49
2022-07-29T06:48:51.088Z,18.55
2022-07-29T06:51:23.372Z,18.58
2022-07-29T06:53:59.526Z,18.47
2022-07-29T06:56:32.059Z,18.26
2022-07-29T06:59:05.823Z,17.99
2022-07-29T07:01:32.702Z,18.04
2022-07-29T07:03:59.609Z,18.01
2022-07-29T07:06:26.504Z,18.04
2022-07-29T07:08:53.345Z,18.11
2022-07-29T07:11:20.338Z,18.14
2022-07-29T07:13:47.331Z,18.18
2022-07-29T07:16:14.252Z,18.29
2022-07-29T07:18:41.687Z,18.37
2022-07-29T07:21:08.731Z,18.41
2022-07-29T07:23:35.682Z,18.51
2022-07-29T07:26:02.627Z,18.58
2022-07-29T07:28:29.571Z,18.68
2022-07-29T07:30:56.610Z,18.75
2022-07-29T07:33:23.869Z,18.83
2022-07-29T07:35:50.818Z,18.90
2022-07-29T07:38:17.807Z,19.00
2022-07-29T07:40:44.707Z,19.06
2022-07-29T07:43:11.594Z,19.12
2022-07-29T07:45:38.676Z,19.24
2022-07-29T07:48:06.177Z,19.30
2022-07-29T07:50:33.278Z,19.38
2022-07-29T07:53:00.729Z,19.44
2022-07-29T07:55:27.864Z,19.50
2022-07-29T07:57:55.928Z,19.64
2022-07-29T08:00:23.872Z,19.77
2022-07-29T08:02:51.705Z,19.87
2022-07-29T08:05:19.738Z,19.92
2022-07-29T08:07:48.021Z,19.96
2022-07-29T08:10:16.448Z,19.95
2022-07-29T08:12:44.865Z,19.93
2022-07-29T08:15:11.809Z,19.90
2022-07-29T08:17:38.717Z,19.86
2022-07-29T08:20:06.264Z,19.89
2022-07-29T08:22:33.166Z,19.91
2022-07-29T08:25:00.060Z,19.86
2022-07-29T08:27:44.809Z,19.89
2022-07-29T08:30:12.025Z,19.96
2022-07-29T08:32:55.553Z,20.03
2022-07-29T08:35:24.542Z,20.08
2022-07-29T08:37:52.062Z,20.11
2022-07-29T08:40:19.361Z,20.15
2022-07-29T08:42:46.513Z,20.23
2022-07-29T08:45:13.907Z,20.27
2022-07-29T08:47:41.322Z,20.31
2022-07-29T08:50:09.703Z,20.40
2022-07-29T08:52:38.486Z,20.47
2022-07-29T08:55:10.758Z,20.42
2022-07-29T08:57:50.882Z,20.56
2022-07-29T09:00:24.301Z,20.78
2022-07-29T09:02:57.289Z,21.01
2022-07-29T09:05:25.979Z,21.34
2022-07-29T09:07:53.385Z,21.56
2022-07-29T09:10:20.597Z,21.81
2022-07-29T09:12:47.886Z,22.06
2022-07-29T09:15:14.744Z,22.23
2022-07-29T09:17:50.498Z,22.31
2022-07-29T09:20:20.461Z,22.19
2022-07-29T09:22:50.776Z,21.95
2022-07-29T09:25:37.274Z,21.86
2022-07-29T09:28:11.087Z,21.87
2022-07-29T09:30:52.675Z,22.07
2022-07-29T09:33:20.128Z,22.36
2022-07-29T09:35:56.613Z,22.42
2022-07-29T09:38:25.737Z,22.47
2022-07-29T09:41:05.975Z,22.47
2022-07-29T09:43:34.176Z,22.41
2022-07-29T09:46:14.602Z,22.36
2022-07-29T09:48:41.732Z,22.20
2022-07-29T09:51:26.989Z,21.96
2022-07-29T09:54:40.257Z,21.98
2022-07-29T09:57:13.601Z,22.21
2022-07-29T09:59:50.066Z,22.49
2022-07-29T10:02:23.478Z,22.60
2022-07-29T10:04:51.054Z,22.56
2022-07-29T10:07:17.951Z,22.33
2022-07-29T10:09:56.375Z,22.18
2022-07-29T10:12:23.522Z,22.21
2022-07-29T10:14:51.186Z,22.03
2022-07-29T10:17:19.466Z,22.00
2022-07-29T10:19:47.286Z,21.97
2022-07-29T10:22:15.041Z,22.05
2022-07-29T10:24:42.186Z,22.15
2022-07-29T10:27:09.947Z,22.26
2022-07-29T10:29:37.513Z,22.41
2022-07-29T10:32:26.061Z,22.59
2022-07-29T10:35:32.436Z,22.95
2022-07-29T10:38:36.250Z,23.07
2022-07-29T10:41:44.115Z,22.82
2022-07-29T10:44:23.295Z,22.77
2022-07-29T10:46:52.365Z,22.68
2022-07-29T10:49:25.226Z,22.49
2022-07-29T10:51:58.797Z,22.54
2022-07-29T10:54:39.665Z,22.68
2022-07-29T10:57:15.322Z,22.80
2022-07-29T10:59:45.451Z,22.67
2022-07-29T11:02:41.728Z,22.57
2022-07-29T11:05:12.145Z,22.71
2022-07-29T11:10:31.212Z,22.95
2022-07-29T11:12:59.406Z,22.83
2022-07-29T11:15:28.569Z,22.72
2022-07-29T11:17:59.658Z,22.44
2022-07-29T11:20:49.880Z,22.29
2022-07-29T11:23:33.473Z,22.00
2022-07-29T11:26:19.094Z,21.89
2022-07-29T11:28:55.630Z,21.91
2022-07-29T11:31:42.955Z,21.76
2022-07-29T11:34:38.166Z,21.80
2022-07-29T11:37:08.077Z,21.69
2022-07-29T11:39:39.979Z,21.67
2022-07-29T11:42:32.080Z,21.66
2022-07-29T11:45:08.416Z,21.73
2022-07-29T11:47:51.725Z,21.89
2022-07-29T11:50:35.908Z,22.24
2022-07-29T11:53:11.249Z,22.64
2022-07-29T11:55:50.888Z,22.87
2022-07-29T11:58:25.184Z,22.88
2022-07-29T12:03:40.274Z,22.95
2022-07-29T12:06:15.035Z,23.03
2022-07-29T12:07:02.431Z,22.93
2022-07-29T12:08:44.131Z,23.22
2022-07-29T12:11:23.536Z,23.38
2022-07-29T12:13:52.683Z,23.35
2022-07-29T12:16:25.462Z,23.41
2022-07-29T12:19:00.425Z,23.31
2022-07-29T12:21:29.477Z,23.32
2022-07-29T12:24:01.769Z,23.38
2022-07-29T12:26:31.918Z,23.44
2022-07-29T12:29:02.365Z,23.51
2022-07-29T12:31:43.874Z,23.53
2022-07-29T12:34:14.303Z,23.37
2022-07-29T12:36:42.938Z,23.40
2022-07-29T12:39:11.204Z,23.21
2022-07-29T12:41:38.558Z,23.01
2022-07-29T12:44:05.712Z,23.04
2022-07-29T12:46:32.753Z,23.06
2022-07-29T12:48:59.909Z,23.13
2022-07-29T12:51:37.963Z,22.99
2022-07-29T12:54:06.391Z,22.91
2022-07-29T12:56:42.607Z,22.71
2022-07-29T12:59:18.311Z,22.48
2022-07-29T13:01:48.187Z,22.21
2022-07-29T13:04:30.129Z,22.02
2022-07-29T13:07:01.667Z,21.97
2022-07-29T13:09:39.825Z,21.91
2022-07-29T13:12:11.788Z,22.02
2022-07-29T13:14:41.660Z,22.17
2022-07-29T13:17:10.349Z,22.29
2022-07-29T13:19:55.058Z,22.31
2022-07-29T13:22:24.044Z,22.46
2022-07-29T13:24:52.595Z,22.34
2022-07-29T13:27:24.654Z,22.16
2022-07-29T13:29:57.598Z,21.99
2022-07-29T13:32:28.735Z,21.94
2022-07-29T13:35:05.433Z,21.75
2022-07-29T13:37:35.367Z,21.89
2022-07-29T13:40:04.581Z,22.23
2022-07-29T13:42:32.582Z,22.63
2022-07-29T13:45:00.167Z,22.95
2022-07-29T13:47:32.342Z,22.96
2022-07-29T13:50:01.610Z,22.93
2022-07-29T13:52:28.661Z,22.85
2022-07-29T13:54:57.448Z,22.75
2022-07-29T13:57:24.339Z,22.73
2022-07-29T13:59:54.356Z,22.53
2022-07-29T14:02:25.365Z,22.39
2022-07-29T14:04:56.407Z,22.23
2022-07-29T14:07:23.740Z,22.17
2022-07-29T14:09:51.307Z,22.11
2022-07-29T14:12:18.654Z,22.07
2022-07-29T14:14:47.333Z,22.09
2022-07-29T14:17:15.026Z,22.08
2022-07-29T14:19:42.610Z,22.12
2022-07-29T14:22:11.049Z,22.36
2022-07-29T14:24:38.779Z,22.57
2022-07-29T14:27:09.506Z,22.83
2022-07-29T14:29:38.510Z,23.14
2022-07-29T14:32:08.390Z,23.19
2022-07-29T14:34:36.731Z,23.24
2022-07-29T14:37:06.976Z,23.24
2022-07-29T14:39:39.313Z,23.34
2022-07-29T14:42:10.307Z,23.44
2022-07-29T14:44:39.809Z,23.63
2022-07-29T14:47:08.168Z,23.75
2022-07-29T14:49:36.220Z,23.82
2022-07-29T14:52:03.681Z,23.82
2022-07-29T14:54:30.662Z,23.71
2022-07-29T14:56:58.740Z,23.65
2022-07-29T14:59:27.068Z,23.61
2022-07-29T15:01:54.299Z,23.52
2022-07-29T15:04:21.417Z,23.54
2022-07-29T15:06:48.618Z,23.61
2022-07-29T15:09:15.516Z,23.72
2022-07-29T15:11:42.461Z,23.77
2022-07-29T15:14:09.448Z,23.86
2022-07-29T15:16:43.867Z,23.78
2022-07-29T15:19:13.537Z,23.63
2022-07-29T15:21:41.618Z,23.47
2022-07-29T15:24:15.302Z,23.44
2022-07-29T15:26:43.588Z,23.54
2022-07-29T15:29:10.835Z,23.54
2022-07-29T15:31:37.998Z,23.50
2022-07-29T15:34:06.130Z,23.41
2022-07-29T15:39:22.482Z,23.30
2022-07-29T15:41:50.190Z,23.37
2022-07-29T15:44:17.285Z,23.35
2022-07-29T15:47:02.862Z,23.39
2022-07-29T15:49:47.607Z,23.36
2022-07-29T15:52:24.919Z,23.22
2022-07-29T15:54:52.476Z,23.08
2022-07-29T15:57:19.531Z,23.01
2022-07-29T15:59:46.477Z,22.81
2022-07-29T16:02:13.458Z,22.62
2022-07-29T16:04:40.409Z,22.44
2022-07-29T16:07:07.770Z,22.28
2022-07-29T16:09:34.764Z,22.11
2022-07-29T16:12:01.699Z,22.01
2022-07-29T16:14:29.104Z,21.83
2022-07-29T16:16:57.123Z,21.72
2022-07-29T16:19:24.481Z,21.69
2022-07-29T16:21:51.379Z,21.62
2022-07-29T16:24:18.947Z,21.56
2022-07-29T16:26:45.887Z,21.52
2022-07-29T16:29:12.926Z,21.49
2022-07-29T16:31:39.854Z,21.53
2022-07-29T16:34:06.766Z,21.58
2022-07-29T16:36:33.711Z,21.65
2022-07-29T16:39:00.764Z,21.65
2022-07-29T16:41:28.216Z,21.63
2022-07-29T16:43:55.581Z,21.56
2022-07-29T16:46:25.855Z,21.51
2022-07-29T16:48:52.962Z,21.37
2022-07-29T16:51:19.944Z,21.35
2022-07-29T16:53:50.284Z,21.32
2022-07-29T16:56:17.566Z,21.29
2022-07-29T16:58:44.624Z,21.28
2022-07-29T17:01:12.611Z,21.14
2022-07-29T17:04:02.308Z,20.99
2022-07-29T17:06:29.761Z,20.86
2022-07-29T17:08:57.230Z,20.79
2022-07-29T17:11:54.018Z,20.78
2022-07-29T17:14:11.661Z,20.72
2022-07-29T17:16:38.806Z,20.70
2022-07-29T17:19:05.702Z,20.75
2022-07-29T17:21:32.646Z,20.86
2022-07-29T17:23:59.889Z,20.97
2022-07-29T17:26:28.242Z,21.06
2022-07-29T17:28:55.746Z,21.11
2022-07-29T17:31:23.640Z,21.12
2022-07-29T17:33:50.608Z,21.17
2022-07-29T17:36:29.926Z,21.23
2022-07-29T17:39:04.297Z,21.21
2022-07-29T17:41:31.400Z,21.27
2022-07-29T17:43:58.642Z,21.29
2022-07-29T17:46:29.223Z,21.28
2022-07-29T17:48:57.589Z,21.17
2022-07-29T17:51:25.682Z,21.06
2022-07-29T17:53:53.191Z,20.84
2022-07-29T17:56:20.290Z,20.76
2022-07-29T17:58:47.693Z,20.75
2022-07-29T18:01:15.732Z,20.79
2022-07-29T18:03:43.674Z,20.80
2022-07-29T18:06:10.928Z,20.75
2022-07-29T18:08:39.256Z,20.69
2022-07-29T18:11:06.916Z,20.69
2022-07-29T18:13:33.859Z,20.65
2022-07-29T18:16:01.110Z,20.66
2022-07-29T18:18:28.368Z,20.67
2022-07-29T18:20:55.621Z,20.69
2022-07-29T18:23:22.664Z,20.73
2022-07-29T18:25:49.620Z,20.74
2022-07-29T18:28:16.757Z,20.79
2022-07-29T18:30:46.332Z,20.80
2022-07-29T18:33:24.256Z,20.75
2022-07-29T18:36:10.719Z,20.71
2022-07-29T18:38:40.381Z,20.59
2022-07-29T18:41:07.694Z,20.59
2022-07-29T18:43:34.694Z,20.57
2022-07-29T18:46:01.678Z,20.53
2022-07-29T18:48:29.640Z,20.48
2022-07-29T18:50:56.591Z,20.44
2022-07-29T18:53:23.385Z,20.41
2022-07-29T18:55:50.375Z,20.38
2022-07-29T18:58:17.325Z,20.35
2022-07-29T19:00:44.226Z,20.25
2022-07-29T19:03:11.269Z,20.19
2022-07-29T19:05:38.360Z,20.16
2022-07-29T19:08:05.560Z,20.08
2022-07-29T19:10:32.659Z,20.04
2022-07-29T19:12:59.565Z,19.97
2022-07-29T19:15:26.674Z,19.88
2022-07-29T19:17:56.569Z,19.82
2022-07-29T19:20:26.077Z,19.78
2022-07-29T19:22:52.930Z,19.78
2022-07-29T19:25:20.119Z,19.76
2022-07-29T19:27:47.376Z,19.75
2022-07-29T19:30:14.373Z,19.75
2022-07-29T19:32:41.213Z,19.75
2022-07-29T19:35:27.104Z,19.74
2022-07-29T19:37:59.070Z,19.72
2022-07-29T19:40:27.900Z,19.65
2022-07-29T19:42:55.163Z,19.60
2022-07-29T19:45:24.881Z,19.52
2022-07-29T19:47:52.224Z,19.45
2022-07-29T19:50:19.581Z,19.39
2022-07-29T19:52:47.281Z,19.33
2022-07-29T19:55:15.374Z,19.24
2022-07-29T19:57:42.513Z,19.21
2022-07-29T20:00:11.747Z,19.13
2022-07-29T20:02:40.414Z,19.09
2022-07-29T20:05:09.075Z,19.05
2022-07-29T20:07:36.794Z,19.00
2022-07-29T20:10:04.757Z,18.94
2022-07-29T20:12:31.915Z,18.91
2022-07-29T20:14:59.068Z,18.87
2022-07-29T20:17:26.052Z,18.83
2022-07-29T20:19:53.303Z,18.77
2022-07-29T20:22:21.516Z,18.73
2022-07-29T20:24:50.062Z,18.71
2022-07-29T20:27:17.118Z,18.68
2022-07-29T20:29:44.003Z,18.60
2022-07-29T20:32:12.646Z,18.49
2022-07-29T20:34:42.771Z,18.45
2022-07-29T20:37:14.726Z,18.38
2022-07-29T20:39:46.537Z,18.33
2022-07-29T20:42:13.843Z,18.30
2022-07-29T20:44:40.734Z,18.22
2022-07-29T20:47:08.038Z,18.15
2022-07-29T20:49:36.520Z,18.10
2022-07-29T20:52:04.376Z,18.02
2022-07-29T20:54:31.378Z,17.98
2022-07-29T20:56:58.722Z,17.94
2022-07-29T20:59:25.778Z,17.89
2022-07-29T21:01:52.714Z,17.85
2022-07-29T21:04:19.823Z,17.81
2022-07-29T21:06:46.683Z,17.79
2022-07-29T21:09:13.664Z,17.74
2022-07-29T21:11:44.692Z,17.67
2022-07-29T21:14:27.124Z,17.66
2022-07-29T21:16:54.156Z,17.60
2022-07-29T21:19:21.104Z,17.57
2022-07-29T21:21:48.006Z,17.57
2022-07-29T21:24:14.941Z,17.53
2022-07-29T21:26:47.180Z,17.50
2022-07-29T21:29:18.694Z,17.48
2022-07-29T21:31:45.654Z,17.47
2022-07-29T21:34:14.615Z,17.46
2022-07-29T21:36:48.205Z,17.46
2022-07-29T21:39:26.358Z,17.44
2022-07-29T21:41:53.468Z,17.43
2022-07-29T21:44:22.151Z,17.42
2022-07-29T21:46:49.602Z,17.41
2022-07-29T21:49:18.782Z,17.41
2022-07-29T21:51:45.908Z,17.40
2022-07-29T21:54:12.953Z,17.41
2022-07-29T21:56:41.266Z,17.41
2022-07-29T21:59:09.770Z,17.41
2022-07-29T22:01:39.137Z,17.42
2022-07-29T22:04:06.795Z,17.41
2022-07-29T22:06:34.731Z,17.41
2022-07-29T22:09:01.731Z,17.40
2022-07-29T22:11:28.674Z,17.39
2022-07-29T22:13:55.578Z,17.39
2022-07-29T22:16:22.457Z,17.36
2022-07-29T22:18:49.574Z,17.34
2022-07-29T22:21:16.451Z,17.31
2022-07-29T22:23:43.409Z,17.29
2022-07-29T22:26:10.300Z,17.27
2022-07-29T22:28:37.196Z,17.25
2022-07-29T22:31:04.254Z,17.23
2022-07-29T22:33:31.122Z,17.22
2022-07-29T22:35:57.971Z,17.18
2022-07-29T22:38:24.876Z,17.19
2022-07-29T22:40:52.530Z,17.17
2022-07-29T22:43:19.731Z,17.15
2022-07-29T22:45:46.827Z,17.14
2022-07-29T22:48:13.673Z,17.11
2022-07-29T22:50:41.063Z,17.11
2022-07-29T22:53:08.176Z,17.10
2022-07-29T22:55:35.010Z,17.07
2022-07-29T22:58:01.921Z,17.06
2022-07-29T23:00:28.872Z,17.04
2022-07-29T23:02:55.696Z,17.04
2022-07-29T23:05:22.541Z,17.03
2022-07-29T23:07:49.381Z,17.02
2022-07-29T23:10:16.330Z,17.02
2022-07-29T23:12:43.273Z,16.99
2022-07-29T23:15:10.113Z,17.00
2022-07-29T23:17:37.087Z,16.97
2022-07-29T23:20:09.927Z,16.97
2022-07-29T23:22:37.301Z,16.97
2022-07-29T23:25:05.224Z,16.96
2022-07-29T23:27:32.363Z,16.96
2022-07-29T23:29:59.213Z,16.94
2022-07-29T23:32:26.065Z,16.94
2022-07-29T23:34:52.893Z,16.94
2022-07-29T23:37:20.062Z,16.93
2022-07-29T23:39:47.007Z,16.92
2022-07-29T23:42:13.964Z,16.92
2022-07-29T23:44:40.828Z,16.91
2022-07-29T23:47:07.875Z,16.88
2022-07-29T23:49:34.874Z,16.91
2022-07-29T23:52:01.764Z,16.90
2022-07-29T23:54:28.618Z,16.91
2022-07-29T23:56:58.159Z,16.88
2022-07-29T23:59:25.524Z,16.90
